Time;durP1;ratioP1;P1;durP2;ratioP2;P2;SDS_P1;SDS_P2;PMS_P1;PMS_P2;Temp;Humidity;BMP_temperature;BMP_pressure;BME280_temperature;BME280_humidity;BME280_pressure;Samples;Min_cycle;Max_cycle;Signal;HPM_P1;HPM_P2
2024/01/16 00:00:08;;;;;;;0.00;0.00;;;;;;;;;;4981519;28;20038;-85
2024/01/16 00:02:34;;;;;;;2.00;0.63;;;;;;;;;;4996405;28;20052;-85
2024/01/16 00:05:00;;;;;;;3.72;0.30;;;;;;;;;;4984488;28;20042;-84
2024/01/16 00:07:26;;;;;;;7.88;0.88;;;;;;;;;;4994482;28;20563;-85
2024/01/16 00:09:53;;;;;;;1.15;0.43;;;;;;;;;;4981629;28;20048;-85
2024/01/16 00:12:19;;;;;;;0.90;0.90;;;;;;;;;;4996524;28;20403;-85
2024/01/16 00:14:45;;;;;;;1.73;0.63;;;;;;;;;;4980905;28;20125;-85
2024/01/16 00:17:11;;;;;;;4.32;0.63;;;;;;;;;;5001719;28;20231;-86
2024/01/16 00:19:37;;;;;;;1.90;0.57;;;;;;;;;;4980148;28;20040;-86
2024/01/16 00:22:04;;;;;;;0.63;0.30;;;;;;;;;;5001433;28;20080;-85
2024/01/16 00:24:30;;;;;;;2.10;1.45;;;;;;;;;;4995699;28;20116;-85
2024/01/16 00:26:57;;;;;;;3.75;0.40;;;;;;;;;;5001364;28;20116;-86
2024/01/16 00:29:25;;;;;;;4.70;1.02;;;;;;;;;;4997446;28;20378;-86
2024/01/16 00:31:51;;;;;;;0.17;0.17;;;;;;;;;;5000014;28;20045;-86
2024/01/16 00:34:17;;;;;;;0.08;0.08;;;;;;;;;;4979756;28;20429;-86
2024/01/16 00:36:43;;;;;;;0.00;0.00;;;;;;;;;;4985901;28;20038;-85
2024/01/16 00:39:09;;;;;;;2.45;0.65;;;;;;;;;;4980211;28;20464;-85
2024/01/16 00:41:35;;;;;;;3.58;0.50;;;;;;;;;;4983452;28;20504;-85
2024/01/16 00:44:01;;;;;;;5.15;0.57;;;;;;;;;;4987625;28;20048;-85
2024/01/16 00:46:27;;;;;;;2.65;0.45;;;;;;;;;;4979211;28;20113;-85
2024/01/16 00:48:53;;;;;;;0.50;0.30;;;;;;;;;;4976868;28;20049;-85
2024/01/16 00:51:19;;;;;;;0.63;0.32;;;;;;;;;;4983271;28;20045;-86
2024/01/16 00:53:45;;;;;;;0.20;0.10;;;;;;;;;;4984384;28;20065;-85
2024/01/16 00:56:12;;;;;;;0.30;0.30;;;;;;;;;;4999386;28;20393;-86
2024/01/16 00:58:38;;;;;;;0.32;0.32;;;;;;;;;;5006004;28;20098;-85
2024/01/16 01:01:04;;;;;;;1.85;0.30;;;;;;;;;;5003020;28;20132;-87
2024/01/16 01:03:30;;;;;;;0.98;0.28;;;;;;;;;;4996217;28;20034;-85
2024/01/16 01:05:56;;;;;;;2.67;0.80;;;;;;;;;;4984547;28;20087;-86
2024/01/16 01:08:22;;;;;;;6.43;1.15;;;;;;;;;;4971473;28;20042;-85
2024/01/16 01:10:48;;;;;;;0.00;0.00;;;;;;;;;;4986121;28;20038;-86
2024/01/16 01:13:15;;;;;;;0.43;0.20;;;;;;;;;;5004017;28;20527;-85
2024/01/16 01:15:41;;;;;;;1.60;0.40;;;;;;;;;;4994285;28;20041;-85
2024/01/16 01:18:07;;;;;;;3.03;0.30;;;;;;;;;;4986980;28;20042;-85
2024/01/16 01:20:33;;;;;;;1.80;0.43;;;;;;;;;;4994095;28;20044;-85
2024/01/16 01:22:59;;;;;;;1.45;0.20;;;;;;;;;;5010050;28;20038;-85
2024/01/16 01:25:26;;;;;;;6.10;0.40;;;;;;;;;;5007659;28;20053;-85
2024/01/16 01:27:52;;;;;;;2.95;0.35;;;;;;;;;;4991164;28;20022;-85
2024/01/16 01:30:18;;;;;;;1.75;0.30;;;;;;;;;;5002897;28;20452;-85
2024/01/16 01:32:44;;;;;;;0.77;0.20;;;;;;;;;;4985983;28;20093;-85
2024/01/16 01:35:11;;;;;;;2.75;0.30;;;;;;;;;;5002575;28;20520;-85
2024/01/16 01:37:38;;;;;;;1.50;0.50;;;;;;;;;;4997332;28;20038;-85
2024/01/16 01:40:04;;;;;;;0.93;0.22;;;;;;;;;;4995234;28;20034;-85
2024/01/16 01:42:30;;;;;;;0.47;0.30;;;;;;;;;;4987579;28;20124;-85
2024/01/16 01:44:56;;;;;;;5.05;0.20;;;;;;;;;;5008482;28;20124;-85
2024/01/16 01:47:22;;;;;;;0.30;0.13;;;;;;;;;;4992021;28;20041;-85
2024/01/16 01:49:48;;;;;;;0.95;0.20;;;;;;;;;;4989903;28;20132;-85
2024/01/16 01:52:15;;;;;;;4.85;0.95;;;;;;;;;;4996811;28;20583;-85
2024/01/16 01:54:41;;;;;;;0.10;0.10;;;;;;;;;;4979824;28;20042;-85
2024/01/16 01:57:07;;;;;;;4.75;0.45;;;;;;;;;;5008756;28;20041;-85
2024/01/16 01:59:34;;;;;;;1.27;0.30;;;;;;;;;;5009597;28;20042;-85
2024/01/16 02:02:00;;;;;;;0.68;0.08;;;;;;;;;;4986686;28;20042;-86
2024/01/16 02:04:26;;;;;;;3.55;0.60;;;;;;;;;;5003287;28;20132;-85
2024/01/16 02:06:53;;;;;;;0.30;0.28;;;;;;;;;;4993792;28;20042;-85
2024/01/16 02:09:19;;;;;;;3.30;0.70;;;;;;;;;;4983586;28;20034;-86
2024/01/16 02:11:45;;;;;;;1.63;0.70;;;;;;;;;;5001891;28;20056;-85
2024/01/16 02:14:11;;;;;;;3.15;0.65;;;;;;;;;;5002720;28;20029;-85
2024/01/16 02:16:38;;;;;;;0.73;0.35;;;;;;;;;;4996361;28;20040;-85
2024/01/16 02:19:05;;;;;;;0.10;0.10;;;;;;;;;;5000435;28;20049;-85
2024/01/16 02:21:34;;;;;;;2.63;0.60;;;;;;;;;;4991590;28;20902;-85
2024/01/16 02:24:01;;;;;;;0.22;0.20;;;;;;;;;;4994801;28;20045;-85
2024/01/16 02:26:27;;;;;;;1.88;0.40;;;;;;;;;;4979387;28;20155;-85
2024/01/16 02:28:53;;;;;;;0.20;0.20;;;;;;;;;;4983879;28;20077;-86
2024/01/16 02:31:19;;;;;;;1.55;0.30;;;;;;;;;;4995712;28;20069;-84
2024/01/16 02:33:45;;;;;;;0.00;0.00;;;;;;;;;;4974743;28;20077;-85
2024/01/16 02:36:11;;;;;;;1.88;0.38;;;;;;;;;;5003185;28;20049;-85
2024/01/16 02:38:37;;;;;;;2.28;0.20;;;;;;;;;;4996219;28;20105;-85
2024/01/16 02:41:04;;;;;;;0.47;0.35;;;;;;;;;;4994571;28;20485;-85
2024/01/16 02:43:30;;;;;;;0.65;0.08;;;;;;;;;;4989917;28;20464;-85
2024/01/16 02:45:55;;;;;;;0.08;0.08;;;;;;;;;;4979833;28;20138;-85
2024/01/16 02:48:21;;;;;;;0.47;0.22;;;;;;;;;;4996272;28;20128;-85
2024/01/16 02:50:48;;;;;;;1.50;0.60;;;;;;;;;;4994787;28;20046;-85
2024/01/16 02:53:14;;;;;;;2.95;0.50;;;;;;;;;;4996967;28;20057;-85
2024/01/16 02:55:40;;;;;;;0.65;0.10;;;;;;;;;;4979136;28;20390;-85
2024/01/16 02:58:06;;;;;;;1.67;0.85;;;;;;;;;;4978278;28;20037;-85
2024/01/16 03:00:32;;;;;;;1.30;0.10;;;;;;;;;;4988608;28;20091;-85
2024/01/16 03:02:58;;;;;;;1.30;0.52;;;;;;;;;;4992104;28;20030;-85
2024/01/16 03:05:24;;;;;;;0.65;0.15;;;;;;;;;;4994040;28;20572;-85
2024/01/16 03:07:50;;;;;;;2.72;0.40;;;;;;;;;;4992941;28;20045;-85
2024/01/16 03:10:16;;;;;;;3.05;0.20;;;;;;;;;;4999874;28;20069;-85
2024/01/16 03:12:42;;;;;;;3.03;0.63;;;;;;;;;;4985740;28;20045;-85
2024/01/16 03:15:08;;;;;;;1.55;0.10;;;;;;;;;;4969921;28;20049;-86
2024/01/16 03:17:34;;;;;;;0.35;0.20;;;;;;;;;;4985208;28;20127;-85
2024/01/16 03:20:01;;;;;;;2.30;0.40;;;;;;;;;;4982949;28;20045;-85
2024/01/16 03:22:27;;;;;;;1.20;0.40;;;;;;;;;;4995179;28;20038;-85
2024/01/16 03:24:53;;;;;;;1.00;0.15;;;;;;;;;;4977003;28;20038;-85
2024/01/16 03:27:19;;;;;;;0.13;0.05;;;;;;;;;;5001491;28;20046;-85
2024/01/16 03:29:45;;;;;;;0.38;0.20;;;;;;;;;;5001428;28;20049;-85
2024/01/16 03:32:11;;;;;;;2.03;0.13;;;;;;;;;;5007356;28;20064;-86
2024/01/16 03:34:37;;;;;;;1.85;0.17;;;;;;;;;;5008457;28;20465;-86
2024/01/16 03:37:04;;;;;;;0.82;0.35;;;;;;;;;;5018705;28;20061;-86
2024/01/16 03:39:30;;;;;;;2.38;0.40;;;;;;;;;;5022341;28;20042;-86
2024/01/16 03:41:55;;;;;;;0.28;0.15;;;;;;;;;;5023987;28;20052;-86
2024/01/16 03:44:22;;;;;;;1.98;0.20;;;;;;;;;;5021822;28;20037;-85
2024/01/16 03:46:48;;;;;;;0.28;0.22;;;;;;;;;;5025423;28;20125;-85
2024/01/16 03:49:14;;;;;;;0.63;0.32;;;;;;;;;;5013385;28;20041;-86
2024/01/16 03:51:42;;;;;;;0.98;0.20;;;;;;;;;;5003606;28;20037;-85
2024/01/16 03:54:08;;;;;;;2.03;0.45;;;;;;;;;;5013152;28;20561;-85
2024/01/16 03:56:34;;;;;;;0.63;0.30;;;;;;;;;;5007480;28;20034;-85
2024/01/16 03:59:00;;;;;;;0.70;0.20;;;;;;;;;;4996293;28;20132;-85
2024/01/16 04:01:33;;;;;;;1.85;0.55;;;;;;;;;;4986822;28;20046;-86
2024/01/16 04:03:59;;;;;;;2.05;0.10;;;;;;;;;;5004508;28;20113;-86
2024/01/16 04:06:27;;;;;;;0.80;0.38;;;;;;;;;;5018418;28;20048;-86
2024/01/16 04:08:53;;;;;;;2.20;0.25;;;;;;;;;;5005217;28;20049;-86
2024/01/16 04:11:19;;;;;;;0.00;0.00;;;;;;;;;;4994848;28;20033;-86
2024/01/16 04:13:45;;;;;;;0.10;0.10;;;;;;;;;;4979846;28;20114;-86
2024/01/16 04:16:12;;;;;;;0.45;0.22;;;;;;;;;;4999996;28;20045;-86
2024/01/16 04:18:40;;;;;;;0.13;0.10;;;;;;;;;;4997057;28;20396;-86
2024/01/16 04:21:06;;;;;;;0.15;0.13;;;;;;;;;;5001723;28;20111;-85
2024/01/16 04:23:33;;;;;;;2.50;0.45;;;;;;;;;;4985301;28;20038;-86
2024/01/16 04:25:59;;;;;;;0.38;0.10;;;;;;;;;;5007640;28;20041;-86
2024/01/16 04:28:25;;;;;;;5.35;0.88;;;;;;;;;;4997055;28;20386;-85
2024/01/16 04:30:51;;;;;;;2.70;0.50;;;;;;;;;;4991602;28;20060;-86
2024/01/16 04:33:17;;;;;;;2.80;0.50;;;;;;;;;;4993256;28;20034;-86
2024/01/16 04:35:43;;;;;;;1.55;0.28;;;;;;;;;;4996287;28;20058;-86
2024/01/16 04:38:09;;;;;;;1.58;0.20;;;;;;;;;;4998574;28;20049;-85
2024/01/16 04:40:35;;;;;;;1.15;0.15;;;;;;;;;;5001339;28;20041;-86
2024/01/16 04:43:02;;;;;;;2.10;0.47;;;;;;;;;;4979878;28;20045;-86
2024/01/16 04:45:28;;;;;;;0.82;0.30;;;;;;;;;;4996449;28;20030;-86
2024/01/16 04:47:54;;;;;;;1.38;0.47;;;;;;;;;;4987601;28;20075;-86
2024/01/16 04:50:20;;;;;;;0.15;0.05;;;;;;;;;;5004449;28;20121;-86
2024/01/16 04:52:46;;;;;;;0.03;0.03;;;;;;;;;;4986733;28;20077;-86
2024/01/16 04:55:12;;;;;;;0.00;0.00;;;;;;;;;;4999783;28;20041;-86
2024/01/16 04:57:38;;;;;;;0.25;0.10;;;;;;;;;;5007381;28;20038;-85
2024/01/16 05:00:07;;;;;;;3.53;0.17;;;;;;;;;;5012145;28;20050;-86
2024/01/16 05:02:34;;;;;;;0.25;0.00;;;;;;;;;;5005545;28;20052;-86
2024/01/16 05:05:00;;;;;;;2.42;0.25;;;;;;;;;;5009617;28;20081;-86
2024/01/16 05:07:26;;;;;;;5.45;0.65;;;;;;;;;;4982388;28;20049;-85
2024/01/16 05:09:53;;;;;;;1.15;0.32;;;;;;;;;;4995543;28;20038;-86
2024/01/16 05:12:20;;;;;;;0.93;0.40;;;;;;;;;;4995536;28;20046;-86
2024/01/16 05:14:46;;;;;;;0.73;0.47;;;;;;;;;;4981617;28;20404;-86
2024/01/16 05:17:12;;;;;;;0.15;0.05;;;;;;;;;;4990011;28;20046;-84
2024/01/16 05:19:38;;;;;;;2.00;0.38;;;;;;;;;;4998635;28;20045;-84
2024/01/16 05:22:04;;;;;;;1.15;0.55;;;;;;;;;;4999646;28;20037;-85
2024/01/16 05:24:30;;;;;;;0.77;0.47;;;;;;;;;;4979192;28;20049;-86
2024/01/16 05:26:56;;;;;;;4.63;0.50;;;;;;;;;;4979335;28;20037;-86
2024/01/16 05:29:22;;;;;;;1.83;0.65;;;;;;;;;;4992982;28;20037;-86
2024/01/16 05:31:48;;;;;;;1.85;0.75;;;;;;;;;;4980278;28;20045;-85
2024/01/16 05:34:15;;;;;;;0.30;0.30;;;;;;;;;;4992212;28;20389;-87
2024/01/16 05:36:41;;;;;;;1.20;0.43;;;;;;;;;;5000399;28;20049;-86
2024/01/16 05:39:08;;;;;;;3.13;0.32;;;;;;;;;;4985819;28;20044;-86
2024/01/16 05:41:35;;;;;;;1.63;0.57;;;;;;;;;;4973272;28;20038;-87
2024/01/16 05:44:03;;;;;;;1.15;0.40;;;;;;;;;;4982141;28;20041;-86
2024/01/16 05:46:30;;;;;;;1.23;0.25;;;;;;;;;;4986745;28;20037;-87
2024/01/16 05:48:56;;;;;;;0.45;0.20;;;;;;;;;;4981240;28;20045;-86
2024/01/16 05:51:22;;;;;;;0.08;0.08;;;;;;;;;;4993340;28;20038;-87
2024/01/16 05:53:48;;;;;;;0.20;0.13;;;;;;;;;;4983946;28;20056;-87
2024/01/16 05:56:14;;;;;;;1.35;0.40;;;;;;;;;;4999043;28;20041;-87
2024/01/16 05:58:40;;;;;;;4.30;0.63;;;;;;;;;;4975306;28;20046;-86
2024/01/16 06:01:06;;;;;;;0.98;0.45;;;;;;;;;;4986776;28;20037;-86
2024/01/16 06:03:32;;;;;;;1.75;0.20;;;;;;;;;;4980994;28;20043;-86
2024/01/16 06:05:59;;;;;;;2.55;0.55;;;;;;;;;;4997023;28;20038;-86
2024/01/16 06:08:25;;;;;;;0.73;0.63;;;;;;;;;;5000930;28;20041;-86
2024/01/16 06:10:51;;;;;;;2.40;0.55;;;;;;;;;;4993086;28;20049;-86
2024/01/16 06:13:19;;;;;;;1.75;0.52;;;;;;;;;;5000362;28;20401;-87
2024/01/16 06:15:45;;;;;;;1.50;0.30;;;;;;;;;;4977148;28;20128;-85
2024/01/16 06:18:11;;;;;;;1.58;1.13;;;;;;;;;;4978690;28;20412;-85
2024/01/16 06:20:37;;;;;;;3.05;0.22;;;;;;;;;;4990854;28;20511;-85
2024/01/16 06:23:03;;;;;;;1.17;0.30;;;;;;;;;;4996673;28;20128;-85
2024/01/16 06:25:29;;;;;;;4.47;0.50;;;;;;;;;;4994362;28;20046;-85
2024/01/16 06:27:55;;;;;;;1.38;0.45;;;;;;;;;;4989952;28;20049;-85
2024/01/16 06:30:25;;;;;;;4.25;0.95;;;;;;;;;;4973009;28;20045;-84
2024/01/16 06:32:51;;;;;;;2.08;0.50;;;;;;;;;;4998502;28;20072;-85
2024/01/16 06:35:17;;;;;;;0.40;0.20;;;;;;;;;;4991150;28;20054;-84
2024/01/16 06:37:44;;;;;;;1.42;0.50;;;;;;;;;;4991869;28;20297;-85
2024/01/16 06:40:10;;;;;;;0.50;0.38;;;;;;;;;;4994125;28;20120;-85
2024/01/16 06:42:36;;;;;;;3.15;0.70;;;;;;;;;;4987410;28;20037;-85
2024/01/16 06:45:02;;;;;;;1.63;0.80;;;;;;;;;;4991994;28;20033;-84
2024/01/16 06:47:28;;;;;;;1.85;0.55;;;;;;;;;;4998123;28;20045;-86
2024/01/16 06:49:54;;;;;;;0.43;0.30;;;;;;;;;;4997076;28;20052;-87
2024/01/16 06:52:20;;;;;;;1.98;1.00;;;;;;;;;;4966364;28;20074;-86
2024/01/16 06:54:46;;;;;;;2.03;1.40;;;;;;;;;;4962432;28;20088;-88
2024/01/16 06:57:12;;;;;;;4.70;1.60;;;;;;;;;;4995312;28;20088;-87
2024/01/16 06:59:39;;;;;;;0.57;0.50;;;;;;;;;;4976785;28;20132;-87
2024/01/16 07:02:05;;;;;;;1.02;0.77;;;;;;;;;;5006182;28;20049;-86
2024/01/16 07:04:32;;;;;;;3.17;0.60;;;;;;;;;;4973619;28;20655;-87
2024/01/16 07:06:59;;;;;;;1.27;0.70;;;;;;;;;;4978338;28;20066;-87
2024/01/16 07:09:27;;;;;;;2.55;1.23;;;;;;;;;;4982168;28;20042;-88
2024/01/16 07:11:53;;;;;;;8.52;2.17;;;;;;;;;;4996201;28;20049;-87
2024/01/16 07:14:19;;;;;;;3.97;2.00;;;;;;;;;;4994117;28;20042;-87
2024/01/16 07:16:45;;;;;;;2.33;1.02;;;;;;;;;;4999618;28;20045;-87
2024/01/16 07:19:14;;;;;;;0.82;0.60;;;;;;;;;;4973539;28;20049;-87
2024/01/16 07:21:40;;;;;;;1.02;0.40;;;;;;;;;;4986972;28;20467;-87
2024/01/16 07:24:06;;;;;;;0.30;0.28;;;;;;;;;;4983492;28;20065;-87
2024/01/16 07:26:32;;;;;;;0.25;0.25;;;;;;;;;;4996512;28;20045;-87
2024/01/16 07:28:59;;;;;;;3.35;0.90;;;;;;;;;;5006863;28;20049;-88
2024/01/16 07:31:26;;;;;;;1.58;1.23;;;;;;;;;;4983981;28;20124;-85
2024/01/16 07:33:52;;;;;;;4.15;1.20;;;;;;;;;;4985062;28;20608;-86
2024/01/16 07:36:18;;;;;;;2.28;0.80;;;;;;;;;;4973881;28;20128;-87
2024/01/16 07:38:44;;;;;;;8.25;2.05;;;;;;;;;;4981185;28;20050;-86
2024/01/16 07:41:10;;;;;;;0.80;0.52;;;;;;;;;;4992119;28;20042;-87
2024/01/16 07:43:36;;;;;;;7.18;1.98;;;;;;;;;;4990518;28;20041;-86
2024/01/16 07:46:02;;;;;;;7.18;2.05;;;;;;;;;;4996020;28;20370;-87
2024/01/16 07:48:29;;;;;;;3.05;1.42;;;;;;;;;;4981893;28;20038;-86
2024/01/16 07:50:55;;;;;;;2.67;1.17;;;;;;;;;;4991809;28;20057;-86
2024/01/16 07:53:21;;;;;;;2.03;1.50;;;;;;;;;;4993404;28;20046;-87
2024/01/16 07:55:47;;;;;;;2.83;1.48;;;;;;;;;;4973837;28;20493;-87
2024/01/16 07:58:14;;;;;;;1.45;0.85;;;;;;;;;;5004232;28;20428;-87
2024/01/16 08:00:40;;;;;;;2.80;1.73;;;;;;;;;;4979237;28;20194;-87
2024/01/16 08:03:08;;;;;;;6.80;2.90;;;;;;;;;;4978536;28;20485;-86
2024/01/16 08:05:34;;;;;;;1.33;0.98;;;;;;;;;;4999962;28;20042;-86
2024/01/16 08:08:00;;;;;;;1.55;0.70;;;;;;;;;;4988564;28;20041;-87
2024/01/16 08:10:26;;;;;;;2.58;0.85;;;;;;;;;;4995775;28;20453;-87
2024/01/16 08:12:52;;;;;;;1.92;1.33;;;;;;;;;;4986521;28;20060;-87
2024/01/16 08:15:18;;;;;;;6.68;1.63;;;;;;;;;;4992642;28;20068;-86
2024/01/16 08:17:44;;;;;;;2.50;1.48;;;;;;;;;;4979097;28;20438;-86
2024/01/16 08:20:11;;;;;;;1.45;0.90;;;;;;;;;;4993568;28;20504;-86
2024/01/16 08:22:37;;;;;;;2.40;0.73;;;;;;;;;;4981170;28;20088;-85
2024/01/16 08:25:07;;;;;;;2.33;1.50;;;;;;;;;;4981981;28;20061;-85
2024/01/16 08:27:33;;;;;;;0.98;0.77;;;;;;;;;;4993474;28;20479;-86
2024/01/16 08:30:00;;;;;;;1.50;1.27;;;;;;;;;;4990356;28;20046;-85
2024/01/16 08:32:26;;;;;;;3.10;1.85;;;;;;;;;;4986402;28;20045;-85
2024/01/16 08:34:53;;;;;;;2.80;1.13;;;;;;;;;;4983148;28;20060;-85
2024/01/16 08:37:19;;;;;;;5.25;2.72;;;;;;;;;;5001535;28;20132;-85
2024/01/16 08:39:45;;;;;;;3.60;2.20;;;;;;;;;;4984251;28;20050;-86
2024/01/16 08:42:14;;;;;;;6.90;1.77;;;;;;;;;;5002158;28;20412;-87
2024/01/16 08:44:40;;;;;;;1.67;1.10;;;;;;;;;;4986327;28;20072;-88
2024/01/16 08:47:06;;;;;;;4.70;2.38;;;;;;;;;;4981345;28;20042;-87
2024/01/16 08:49:33;;;;;;;5.47;3.08;;;;;;;;;;4987613;28;20045;-85
2024/01/16 08:52:02;;;;;;;2.25;1.55;;;;;;;;;;4995426;28;20563;-85
2024/01/16 08:54:28;;;;;;;2.50;0.90;;;;;;;;;;4986161;28;20038;-86
2024/01/16 08:56:54;;;;;;;3.60;1.25;;;;;;;;;;4998247;28;20484;-88
2024/01/16 08:59:21;;;;;;;5.72;1.70;;;;;;;;;;4992354;28;20038;-85
2024/01/16 09:01:47;;;;;;;5.80;3.25;;;;;;;;;;4994238;28;20045;-85
2024/01/16 09:04:13;;;;;;;3.40;2.13;;;;;;;;;;4998627;28;20074;-86
2024/01/16 09:06:39;;;;;;;1.48;1.30;;;;;;;;;;4986217;28;22518;-87
2024/01/16 09:09:05;;;;;;;5.18;2.25;;;;;;;;;;5002693;28;20064;-87
2024/01/16 09:11:34;;;;;;;2.17;1.50;;;;;;;;;;4981766;28;20069;-87
2024/01/16 09:14:00;;;;;;;1.95;0.70;;;;;;;;;;4990574;28;20052;-87
2024/01/16 09:16:26;;;;;;;2.25;1.90;;;;;;;;;;4987074;28;20042;-87
2024/01/16 09:18:52;;;;;;;2.22;1.45;;;;;;;;;;5001945;28;20042;-87
2024/01/16 09:21:18;;;;;;;2.47;1.17;;;;;;;;;;4984000;28;20495;-86
2024/01/16 09:23:44;;;;;;;4.28;2.53;;;;;;;;;;4991322;28;20048;-86
2024/01/16 09:26:10;;;;;;;3.67;2.13;;;;;;;;;;4988040;28;20045;-86
2024/01/16 09:28:36;;;;;;;7.75;3.03;;;;;;;;;;4986413;28;20068;-86
2024/01/16 09:31:03;;;;;;;3.53;1.40;;;;;;;;;;4983924;28;20084;-86
2024/01/16 09:33:29;;;;;;;2.03;1.45;;;;;;;;;;4986565;28;20045;-86
2024/01/16 09:35:55;;;;;;;8.85;2.45;;;;;;;;;;5008957;28;20060;-87
2024/01/16 09:38:21;;;;;;;7.13;4.35;;;;;;;;;;4987681;28;20029;-86
2024/01/16 09:40:47;;;;;;;3.85;1.73;;;;;;;;;;4988550;28;20492;-86
2024/01/16 09:43:15;;;;;;;8.40;4.82;;;;;;;;;;4985279;28;20045;-86
2024/01/16 09:45:41;;;;;;;5.30;3.22;;;;;;;;;;5003128;28;20056;-86
2024/01/16 09:48:08;;;;;;;5.32;2.20;;;;;;;;;;5003590;28;20088;-86
2024/01/16 09:50:34;;;;;;;4.35;2.70;;;;;;;;;;4992770;28;20124;-86
2024/01/16 09:53:01;;;;;;;5.15;2.85;;;;;;;;;;4989880;28;20045;-86
2024/01/16 09:55:27;;;;;;;8.15;3.15;;;;;;;;;;4998275;28;20046;-86
2024/01/16 09:57:53;;;;;;;7.85;4.50;;;;;;;;;;4997486;28;20037;-86
2024/01/16 10:00:20;;;;;;;4.35;3.00;;;;;;;;;;4983225;28;20042;-86
2024/01/16 10:02:46;;;;;;;5.03;2.22;;;;;;;;;;4984488;28;20135;-86
2024/01/16 10:05:13;;;;;;;6.72;3.15;;;;;;;;;;5001176;28;20089;-85
2024/01/16 10:07:40;;;;;;;3.97;2.38;;;;;;;;;;4987218;28;20405;-86
2024/01/16 10:10:06;;;;;;;7.63;3.05;;;;;;;;;;4998779;28;20128;-86
2024/01/16 10:12:33;;;;;;;1.15;1.05;;;;;;;;;;4986089;28;20079;-86
2024/01/16 10:14:59;;;;;;;2.30;1.67;;;;;;;;;;5000949;28;20128;-86
2024/01/16 10:17:38;;;;;;;6.85;1.73;;;;;;;;;;4986584;28;20046;-87
2024/01/16 10:20:04;;;;;;;3.25;1.98;;;;;;;;;;4998562;28;20381;-86
2024/01/16 10:22:31;;;;;;;1.00;0.75;;;;;;;;;;4983202;28;20045;-85
2024/01/16 10:25:09;;;;;;;3.78;2.40;;;;;;;;;;5000234;28;20033;-85
2024/01/16 10:27:36;;;;;;;3.35;2.60;;;;;;;;;;5004746;28;20046;-86
2024/01/16 10:30:03;;;;;;;4.60;2.20;;;;;;;;;;5003765;28;20457;-86
2024/01/16 10:32:30;;;;;;;1.35;0.98;;;;;;;;;;5003805;28;20069;-85
2024/01/16 10:35:10;;;;;;;1.85;1.48;;;;;;;;;;5000866;28;20159;-86
2024/01/16 10:37:53;;;;;;;2.47;1.48;;;;;;;;;;5000510;28;20051;-87
2024/01/16 10:40:20;;;;;;;3.20;1.55;;;;;;;;;;4987042;28;20128;-86
2024/01/16 10:42:46;;;;;;;1.88;1.10;;;;;;;;;;4986945;28;20506;-85
2024/01/16 10:45:19;;;;;;;1.25;0.75;;;;;;;;;;5000856;28;20045;-87
2024/01/16 10:47:46;;;;;;;0.55;0.38;;;;;;;;;;5004258;28;20427;-85
2024/01/16 10:50:12;;;;;;;0.10;0.10;;;;;;;;;;4999510;28;20067;-86
2024/01/16 10:52:44;;;;;;;0.98;0.52;;;;;;;;;;4981950;28;20038;-86
2024/01/16 10:55:10;;;;;;;2.90;1.13;;;;;;;;;;4984095;28;20141;-85
2024/01/16 10:57:39;;;;;;;3.10;0.73;;;;;;;;;;4983331;28;20099;-85
2024/01/16 11:00:07;;;;;;;1.60;0.40;;;;;;;;;;4985274;28;20108;-85
2024/01/16 11:02:46;;;;;;;3.92;1.50;;;;;;;;;;5001132;28;20397;-85
2024/01/16 11:05:14;;;;;;;2.28;1.00;;;;;;;;;;5002113;28;20433;-86
2024/01/16 11:07:41;;;;;;;4.03;0.68;;;;;;;;;;5009125;28;20033;-86
2024/01/16 11:10:08;;;;;;;1.58;0.93;;;;;;;;;;5011156;28;20037;-86
2024/01/16 11:12:34;;;;;;;0.90;0.50;;;;;;;;;;5000871;28;20054;-87
2024/01/16 11:15:01;;;;;;;0.10;0.03;;;;;;;;;;4994616;28;20103;-85
2024/01/16 11:17:29;;;;;;;0.80;0.50;;;;;;;;;;4995027;28;20046;-86
2024/01/16 11:19:55;;;;;;;5.80;0.70;;;;;;;;;;4981045;28;20037;-86
2024/01/16 11:22:22;;;;;;;4.22;0.93;;;;;;;;;;5000530;28;20037;-85
2024/01/16 11:25:08;;;;;;;3.30;1.05;;;;;;;;;;4997875;28;20045;-86
2024/01/16 11:27:34;;;;;;;0.45;0.40;;;;;;;;;;4988488;28;20455;-87
2024/01/16 11:30:01;;;;;;;1.38;0.80;;;;;;;;;;4979912;28;20409;-88
2024/01/16 11:32:34;;;;;;;2.65;0.60;;;;;;;;;;4993939;28;20033;-88
2024/01/16 11:35:00;;;;;;;1.17;1.02;;;;;;;;;;4974377;28;20483;-87
2024/01/16 11:37:31;;;;;;;4.68;0.63;;;;;;;;;;4999514;28;20049;-87
2024/01/16 11:40:16;;;;;;;0.50;0.47;;;;;;;;;;5002434;28;20073;-88
2024/01/16 11:42:43;;;;;;;0.20;0.20;;;;;;;;;;5000318;28;20040;-87
2024/01/16 11:45:09;;;;;;;0.63;0.40;;;;;;;;;;4981958;28;20034;-87
2024/01/16 11:47:36;;;;;;;1.23;0.32;;;;;;;;;;4998474;28;20119;-89
2024/01/16 11:50:11;;;;;;;0.50;0.45;;;;;;;;;;4979179;28;20802;-87
2024/01/16 11:52:45;;;;;;;3.30;0.60;;;;;;;;;;4998789;28;20112;-87
2024/01/16 11:55:33;;;;;;;1.27;0.85;;;;;;;;;;4997087;28;20052;-85
2024/01/16 11:58:22;;;;;;;3.65;1.75;;;;;;;;;;5005743;28;20050;-86
2024/01/16 12:00:52;;;;;;;3.45;1.25;;;;;;;;;;5008601;28;20068;-85
2024/01/16 12:03:18;;;;;;;;;;;;;;;;;;5015239;28;20050;-86
2024/01/16 12:05:44;;;;;;;2.45;1.15;;;;;;;;;;4984559;28;19926;-85
2024/01/16 12:08:10;;;;;;;3.67;1.38;;;;;;;;;;5001016;28;20390;-86
2024/01/16 12:10:48;;;;;;;4.10;1.40;;;;;;;;;;4997033;28;20034;-87
2024/01/16 12:13:14;;;;;;;3.40;1.13;;;;;;;;;;4998406;28;20859;-86
2024/01/16 12:15:40;;;;;;;3.30;1.42;;;;;;;;;;5006322;28;20075;-87
2024/01/16 12:18:07;;;;;;;2.67;1.52;;;;;;;;;;4987618;28;20045;-87
2024/01/16 12:20:34;;;;;;;3.22;1.33;;;;;;;;;;5002040;28;20513;-87
2024/01/16 12:23:00;;;;;;;3.78;2.30;;;;;;;;;;4997927;28;20673;-86
2024/01/16 12:25:27;;;;;;;5.85;2.83;;;;;;;;;;5011230;28;20529;-87
2024/01/16 12:27:56;;;;;;;4.78;2.42;;;;;;;;;;4999628;28;20041;-87
2024/01/16 12:30:25;;;;;;;6.03;3.45;;;;;;;;;;4987337;28;20046;-88
2024/01/16 12:32:51;;;;;;;4.65;2.60;;;;;;;;;;5006494;28;20090;-86
2024/01/16 12:35:20;;;;;;;8.15;3.40;;;;;;;;;;5007583;28;20092;-87
2024/01/16 12:37:58;;;;;;;4.88;2.40;;;;;;;;;;4987945;28;20504;-87
2024/01/16 12:40:25;;;;;;;4.07;2.50;;;;;;;;;;4986427;28;20164;-85
2024/01/16 12:42:51;;;;;;;7.75;2.97;;;;;;;;;;4983429;28;20386;-84
2024/01/16 12:45:17;;;;;;;5.28;2.72;;;;;;;;;;4995266;28;20045;-85
2024/01/16 12:47:44;;;;;;;6.68;3.92;;;;;;;;;;4999907;28;20116;-84
2024/01/16 12:50:11;;;;;;;5.47;2.55;;;;;;;;;;4988717;28;20048;-85
2024/01/16 12:52:37;;;;;;;6.00;3.33;;;;;;;;;;5001945;28;20370;-84
2024/01/16 12:55:07;;;;;;;8.18;4.45;;;;;;;;;;4990608;28;20123;-84
2024/01/16 12:57:33;;;;;;;6.18;3.20;;;;;;;;;;5000195;28;20567;-85
2024/01/16 13:00:01;;;;;;;0.82;0.82;;;;;;;;;;4985020;28;20034;-86
2024/01/16 13:02:27;;;;;;;4.32;3.03;;;;;;;;;;4983599;28;20052;-84
2024/01/16 13:04:57;;;;;;;6.75;3.30;;;;;;;;;;5019607;28;20025;-87
2024/01/16 13:07:23;;;;;;;8.40;3.72;;;;;;;;;;5003693;28;20033;-86
2024/01/16 13:09:50;;;;;;;7.03;3.03;;;;;;;;;;5011765;28;20037;-86
2024/01/16 13:12:22;;;;;;;7.50;3.60;;;;;;;;;;5027246;28;20042;-86
2024/01/16 13:14:48;;;;;;;1.42;1.27;;;;;;;;;;5021531;28;20030;-87
2024/01/16 13:17:14;;;;;;;8.57;3.28;;;;;;;;;;5015295;28;20042;-87
2024/01/16 13:19:41;;;;;;;5.25;3.25;;;;;;;;;;5005609;28;20078;-88
2024/01/16 13:22:07;;;;;;;3.72;1.80;;;;;;;;;;5000963;28;20042;-88
2024/01/16 13:24:33;;;;;;;6.38;3.03;;;;;;;;;;4980513;28;20101;-88
2024/01/16 13:27:00;;;;;;;4.28;2.65;;;;;;;;;;4986701;28;20121;-88
2024/01/16 13:29:26;;;;;;;8.40;3.33;;;;;;;;;;4977985;28;20382;-87
2024/01/16 13:31:55;;;;;;;4.13;1.95;;;;;;;;;;5003844;28;20048;-88
2024/01/16 13:34:21;;;;;;;5.40;2.50;;;;;;;;;;4978503;28;20504;-88
2024/01/16 13:36:49;;;;;;;6.85;2.78;;;;;;;;;;4985431;28;20049;-88
2024/01/16 13:39:15;;;;;;;3.03;2.25;;;;;;;;;;4977823;28;20038;-88
2024/01/16 13:41:41;;;;;;;4.28;2.25;;;;;;;;;;4999348;28;20069;-88
2024/01/16 13:44:07;;;;;;;3.85;1.90;;;;;;;;;;4975434;28;20030;-87
2024/01/16 13:46:33;;;;;;;7.10;3.22;;;;;;;;;;4979398;28;20117;-89
2024/01/16 13:49:00;;;;;;;2.95;2.10;;;;;;;;;;4983737;28;20050;-89
2024/01/16 13:51:27;;;;;;;4.53;2.30;;;;;;;;;;4976622;28;20037;-89
2024/01/16 13:53:53;;;;;;;5.65;2.83;;;;;;;;;;4998152;28;20045;-90
2024/01/16 13:56:19;;;;;;;3.25;2.38;;;;;;;;;;4987021;28;20037;-89
2024/01/16 13:58:45;;;;;;;3.58;2.05;;;;;;;;;;4987424;28;20037;-89
2024/01/16 14:01:11;;;;;;;5.55;2.13;;;;;;;;;;4993699;28;20072;-90
2024/01/16 14:03:38;;;;;;;10.80;2.45;;;;;;;;;;5007017;28;20030;-88
2024/01/16 14:06:04;;;;;;;5.43;1.83;;;;;;;;;;5012380;28;20056;-89
2024/01/16 14:08:30;;;;;;;3.05;1.38;;;;;;;;;;4994176;28;20037;-89
2024/01/16 14:10:56;;;;;;;2.50;0.98;;;;;;;;;;4996752;28;20501;-89
2024/01/16 14:13:22;;;;;;;3.63;1.13;;;;;;;;;;4994102;28;20049;-88
2024/01/16 14:15:50;;;;;;;5.18;1.30;;;;;;;;;;4991109;28;20427;-90
2024/01/16 14:18:16;;;;;;;3.38;2.17;;;;;;;;;;4987164;28;20554;-90
2024/01/16 14:20:42;;;;;;;0.63;0.63;;;;;;;;;;4984832;28;20037;-92
2024/01/16 14:23:08;;;;;;;1.60;0.90;;;;;;;;;;4979888;28;20045;-92
2024/01/16 14:25:35;;;;;;;0.65;0.50;;;;;;;;;;4988814;28;20088;-91
2024/01/16 14:28:05;;;;;;;3.20;0.77;;;;;;;;;;4994765;28;20041;-91
2024/01/16 14:30:34;;;;;;;1.08;0.98;;;;;;;;;;4988771;28;20404;-92
2024/01/16 14:33:01;;;;;;;1.02;0.60;;;;;;;;;;4989409;28;20091;-90
2024/01/16 14:35:27;;;;;;;0.88;0.43;;;;;;;;;;4989017;28;20045;-92
2024/01/16 14:37:53;;;;;;;1.75;0.73;;;;;;;;;;5005968;28;20049;-91
2024/01/16 14:40:20;;;;;;;1.40;1.25;;;;;;;;;;4989982;28;20041;-90